sensor_id;sensor_type;location;lat;lon;timestamp;P1;durP1;ratioP1;P2;durP2;ratioP2
23498;SDS011;11926;48.120;11.562;2023-09-18T00:02:42;7.00;;;4.07;;
23498;SDS011;11926;48.120;11.562;2023-09-18T00:05:30;6.10;;;3.97;;
23498;SDS011;11926;48.120;11.562;2023-09-18T00:08:19;7.68;;;4.07;;
23498;SDS011;11926;48.120;11.562;2023-09-18T00:11:06;6.63;;;4.15;;
23498;SDS011;11926;48.120;11.562;2023-09-18T00:13:56;9.38;;;3.70;;
23498;SDS011;11926;48.120;11.562;2023-09-18T00:16:43;8.77;;;3.80;;
23498;SDS011;11926;48.120;11.562;2023-09-18T00:19:43;5.93;;;3.95;;
23498;SDS011;11926;48.120;11.562;2023-09-18T00:22:31;9.82;;;4.07;;
23498;SDS011;11926;48.120;11.562;2023-09-18T00:25:18;7.00;;;3.83;;
23498;SDS011;11926;48.120;11.562;2023-09-18T00:28:05;5.40;;;3.63;;
23498;SDS011;11926;48.120;11.562;2023-09-18T00:30:53;5.22;;;3.70;;
23498;SDS011;11926;48.120;11.562;2023-09-18T00:33:40;6.60;;;3.80;;
23498;SDS011;11926;48.120;11.562;2023-09-18T00:36:27;6.55;;;3.75;;
23498;SDS011;11926;48.120;11.562;2023-09-18T00:39:15;5.03;;;3.22;;
23498;SDS011;11926;48.120;11.562;2023-09-18T00:42:02;8.10;;;4.00;;
23498;SDS011;11926;48.120;11.562;2023-09-18T00:44:49;8.48;;;3.85;;
23498;SDS011;11926;48.120;11.562;2023-09-18T00:47:37;10.73;;;4.28;;
23498;SDS011;11926;48.120;11.562;2023-09-18T00:50:26;7.05;;;3.85;;
23498;SDS011;11926;48.120;11.562;2023-09-18T00:53:13;5.25;;;3.20;;
23498;SDS011;11926;48.120;11.562;2023-09-18T00:56:04;8.45;;;3.70;;
23498;SDS011;11926;48.120;11.562;2023-09-18T00:58:52;4.30;;;3.10;;
23498;SDS011;11926;48.120;11.562;2023-09-18T01:01:40;6.15;;;3.22;;
23498;SDS011;11926;48.120;11.562;2023-09-18T01:04:30;6.20;;;3.60;;
23498;SDS011;11926;48.120;11.562;2023-09-18T01:07:19;5.15;;;3.50;;
23498;SDS011;11926;48.120;11.562;2023-09-18T01:10:06;6.55;;;3.40;;
23498;SDS011;11926;48.120;11.562;2023-09-18T01:12:55;7.38;;;3.55;;
23498;SDS011;11926;48.120;11.562;2023-09-18T01:15:51;6.78;;;3.28;;
23498;SDS011;11926;48.120;11.562;2023-09-18T01:18:48;5.38;;;3.50;;
23498;SDS011;11926;48.120;11.562;2023-09-18T01:21:38;6.20;;;3.88;;
23498;SDS011;11926;48.120;11.562;2023-09-18T01:24:27;6.07;;;3.10;;
23498;SDS011;11926;48.120;11.562;2023-09-18T01:27:17;7.07;;;3.42;;
23498;SDS011;11926;48.120;11.562;2023-09-18T01:30:05;7.97;;;3.45;;
23498;SDS011;11926;48.120;11.562;2023-09-18T01:32:53;6.18;;;3.20;;
23498;SDS011;11926;48.120;11.562;2023-09-18T01:35:44;6.07;;;3.65;;
23498;SDS011;11926;48.120;11.562;2023-09-18T01:38:32;6.03;;;3.20;;
23498;SDS011;11926;48.120;11.562;2023-09-18T01:41:21;6.72;;;3.47;;
23498;SDS011;11926;48.120;11.562;2023-09-18T01:44:09;5.70;;;3.70;;
23498;SDS011;11926;48.120;11.562;2023-09-18T01:46:56;5.80;;;3.30;;
23498;SDS011;11926;48.120;11.562;2023-09-18T01:49:45;5.45;;;3.70;;
23498;SDS011;11926;48.120;11.562;2023-09-18T01:52:33;6.30;;;3.60;;
23498;SDS011;11926;48.120;11.562;2023-09-18T01:55:21;7.32;;;3.53;;
23498;SDS011;11926;48.120;11.562;2023-09-18T01:58:11;5.82;;;3.67;;
23498;SDS011;11926;48.120;11.562;2023-09-18T02:01:01;7.80;;;3.35;;
23498;SDS011;11926;48.120;11.562;2023-09-18T02:03:50;6.57;;;3.40;;
23498;SDS011;11926;48.120;11.562;2023-09-18T02:06:57;6.28;;;3.47;;
23498;SDS011;11926;48.120;11.562;2023-09-18T02:09:45;5.75;;;3.10;;
23498;SDS011;11926;48.120;11.562;2023-09-18T02:12:32;4.85;;;3.20;;
23498;SDS011;11926;48.120;11.562;2023-09-18T02:15:21;5.47;;;3.72;;
23498;SDS011;11926;48.120;11.562;2023-09-18T02:18:09;6.30;;;3.42;;
23498;SDS011;11926;48.120;11.562;2023-09-18T02:20:56;5.72;;;3.45;;
23498;SDS011;11926;48.120;11.562;2023-09-18T02:23:43;5.00;;;3.35;;
23498;SDS011;11926;48.120;11.562;2023-09-18T02:26:30;8.23;;;3.58;;
23498;SDS011;11926;48.120;11.562;2023-09-18T02:29:17;4.72;;;3.17;;
23498;SDS011;11926;48.120;11.562;2023-09-18T02:32:06;6.35;;;3.20;;
23498;SDS011;11926;48.120;11.562;2023-09-18T02:34:55;6.40;;;3.10;;
23498;SDS011;11926;48.120;11.562;2023-09-18T02:37:42;8.10;;;3.67;;
23498;SDS011;11926;48.120;11.562;2023-09-18T02:40:29;5.85;;;3.20;;
23498;SDS011;11926;48.120;11.562;2023-09-18T02:43:16;5.55;;;3.65;;
23498;SDS011;11926;48.120;11.562;2023-09-18T02:46:04;8.77;;;3.58;;
23498;SDS011;11926;48.120;11.562;2023-09-18T02:48:55;6.70;;;3.50;;
23498;SDS011;11926;48.120;11.562;2023-09-18T02:51:43;11.90;;;3.60;;
23498;SDS011;11926;48.120;11.562;2023-09-18T02:54:30;6.07;;;3.47;;
23498;SDS011;11926;48.120;11.562;2023-09-18T02:57:17;6.78;;;3.80;;
23498;SDS011;11926;48.120;11.562;2023-09-18T03:00:05;6.40;;;3.92;;
23498;SDS011;11926;48.120;11.562;2023-09-18T03:02:53;8.93;;;3.80;;
23498;SDS011;11926;48.120;11.562;2023-09-18T03:05:42;7.43;;;3.78;;
23498;SDS011;11926;48.120;11.562;2023-09-18T03:08:31;7.82;;;3.40;;
23498;SDS011;11926;48.120;11.562;2023-09-18T03:11:19;7.40;;;3.47;;
23498;SDS011;11926;48.120;11.562;2023-09-18T03:14:07;4.55;;;3.17;;
23498;SDS011;11926;48.120;11.562;2023-09-18T03:16:54;8.40;;;3.85;;
23498;SDS011;11926;48.120;11.562;2023-09-18T03:19:41;8.60;;;4.03;;
23498;SDS011;11926;48.120;11.562;2023-09-18T03:22:30;5.97;;;3.45;;
23498;SDS011;11926;48.120;11.562;2023-09-18T03:25:17;7.32;;;3.75;;
23498;SDS011;11926;48.120;11.562;2023-09-18T03:28:05;6.57;;;3.60;;
23498;SDS011;11926;48.120;11.562;2023-09-18T03:30:52;11.00;;;3.72;;
23498;SDS011;11926;48.120;11.562;2023-09-18T03:33:42;7.05;;;3.60;;
23498;SDS011;11926;48.120;11.562;2023-09-18T03:36:29;6.35;;;3.38;;
23498;SDS011;11926;48.120;11.562;2023-09-18T03:39:17;11.15;;;4.47;;
23498;SDS011;11926;48.120;11.562;2023-09-18T03:42:05;9.35;;;4.18;;
23498;SDS011;11926;48.120;11.562;2023-09-18T03:44:53;9.43;;;4.15;;
23498;SDS011;11926;48.120;11.562;2023-09-18T03:47:40;8.70;;;3.78;;
23498;SDS011;11926;48.120;11.562;2023-09-18T03:50:28;8.68;;;4.18;;
23498;SDS011;11926;48.120;11.562;2023-09-18T03:53:15;9.38;;;4.18;;
23498;SDS011;11926;48.120;11.562;2023-09-18T03:56:05;11.70;;;4.03;;
23498;SDS011;11926;48.120;11.562;2023-09-18T03:58:52;8.15;;;4.10;;
23498;SDS011;11926;48.120;11.562;2023-09-18T04:01:39;6.65;;;3.78;;
23498;SDS011;11926;48.120;11.562;2023-09-18T04:04:27;5.95;;;4.03;;
23498;SDS011;11926;48.120;11.562;2023-09-18T04:07:14;14.10;;;4.35;;
23498;SDS011;11926;48.120;11.562;2023-09-18T04:10:02;10.30;;;4.53;;
23498;SDS011;11926;48.120;11.562;2023-09-18T04:12:52;8.10;;;3.83;;
23498;SDS011;11926;48.120;11.562;2023-09-18T04:15:39;6.50;;;3.40;;
23498;SDS011;11926;48.120;11.562;2023-09-18T04:18:27;10.35;;;4.10;;
23498;SDS011;11926;48.120;11.562;2023-09-18T04:21:14;7.00;;;3.40;;
23498;SDS011;11926;48.120;11.562;2023-09-18T04:24:01;7.63;;;3.92;;
23498;SDS011;11926;48.120;11.562;2023-09-18T04:26:49;7.78;;;3.72;;
23498;SDS011;11926;48.120;11.562;2023-09-18T04:29:38;8.15;;;3.67;;
23498;SDS011;11926;48.120;11.562;2023-09-18T04:32:26;6.75;;;3.92;;
23498;SDS011;11926;48.120;11.562;2023-09-18T04:35:15;8.75;;;3.85;;
23498;SDS011;11926;48.120;11.562;2023-09-18T04:38:03;7.47;;;3.83;;
23498;SDS011;11926;48.120;11.562;2023-09-18T04:40:57;10.13;;;3.70;;
23498;SDS011;11926;48.120;11.562;2023-09-18T04:43:45;7.22;;;3.97;;
23498;SDS011;11926;48.120;11.562;2023-09-18T04:46:34;6.78;;;3.78;;
23498;SDS011;11926;48.120;11.562;2023-09-18T04:49:22;8.50;;;4.05;;
23498;SDS011;11926;48.120;11.562;2023-09-18T04:52:09;10.48;;;4.32;;
23498;SDS011;11926;48.120;11.562;2023-09-18T04:54:57;18.67;;;4.55;;
23498;SDS011;11926;48.120;11.562;2023-09-18T04:57:44;21.05;;;4.65;;
23498;SDS011;11926;48.120;11.562;2023-09-18T05:00:32;19.73;;;4.40;;
23498;SDS011;11926;48.120;11.562;2023-09-18T05:03:20;15.07;;;5.05;;
23498;SDS011;11926;48.120;11.562;2023-09-18T05:06:08;16.25;;;4.35;;
23498;SDS011;11926;48.120;11.562;2023-09-18T05:08:56;15.85;;;4.28;;
23498;SDS011;11926;48.120;11.562;2023-09-18T05:11:43;14.27;;;4.32;;
23498;SDS011;11926;48.120;11.562;2023-09-18T05:14:30;14.85;;;4.72;;
23498;SDS011;11926;48.120;11.562;2023-09-18T05:17:19;12.23;;;4.80;;
23498;SDS011;11926;48.120;11.562;2023-09-18T05:20:09;15.10;;;6.13;;
23498;SDS011;11926;48.120;11.562;2023-09-18T05:22:58;18.85;;;6.57;;
23498;SDS011;11926;48.120;11.562;2023-09-18T05:25:47;13.10;;;6.55;;
23498;SDS011;11926;48.120;11.562;2023-09-18T05:28:34;15.48;;;6.15;;
23498;SDS011;11926;48.120;11.562;2023-09-18T05:31:22;10.98;;;5.63;;
23498;SDS011;11926;48.120;11.562;2023-09-18T05:34:09;9.60;;;5.25;;
23498;SDS011;11926;48.120;11.562;2023-09-18T05:36:59;16.40;;;5.55;;
23498;SDS011;11926;48.120;11.562;2023-09-18T05:39:46;11.57;;;5.10;;
23498;SDS011;11926;48.120;11.562;2023-09-18T05:42:34;10.95;;;5.20;;
23498;SDS011;11926;48.120;11.562;2023-09-18T05:45:22;7.82;;;4.45;;
23498;SDS011;11926;48.120;11.562;2023-09-18T05:48:11;11.77;;;4.63;;
23498;SDS011;11926;48.120;11.562;2023-09-18T05:50:58;10.60;;;4.97;;
23498;SDS011;11926;48.120;11.562;2023-09-18T05:53:50;11.80;;;5.55;;
23498;SDS011;11926;48.120;11.562;2023-09-18T05:56:37;12.23;;;5.30;;
23498;SDS011;11926;48.120;11.562;2023-09-18T05:59:25;10.85;;;5.20;;
23498;SDS011;11926;48.120;11.562;2023-09-18T06:02:12;11.98;;;5.07;;
23498;SDS011;11926;48.120;11.562;2023-09-18T06:05:02;15.18;;;5.75;;
23498;SDS011;11926;48.120;11.562;2023-09-18T06:07:51;12.93;;;5.38;;
23498;SDS011;11926;48.120;11.562;2023-09-18T06:10:40;15.52;;;5.78;;
23498;SDS011;11926;48.120;11.562;2023-09-18T06:13:27;10.00;;;4.60;;
23498;SDS011;11926;48.120;11.562;2023-09-18T06:16:15;9.25;;;4.40;;
23498;SDS011;11926;48.120;11.562;2023-09-18T06:19:02;10.68;;;4.88;;
23498;SDS011;11926;48.120;11.562;2023-09-18T06:21:49;16.27;;;5.00;;
23498;SDS011;11926;48.120;11.562;2023-09-18T06:24:37;17.83;;;4.78;;
23498;SDS011;11926;48.120;11.562;2023-09-18T06:27:26;11.15;;;5.03;;
23498;SDS011;11926;48.120;11.562;2023-09-18T06:30:14;9.55;;;4.70;;
23498;SDS011;11926;48.120;11.562;2023-09-18T06:33:01;14.88;;;4.38;;
23498;SDS011;11926;48.120;11.562;2023-09-18T06:35:50;7.55;;;3.92;;
23498;SDS011;11926;48.120;11.562;2023-09-18T06:38:38;8.73;;;3.80;;
23498;SDS011;11926;48.120;11.562;2023-09-18T06:41:26;9.45;;;3.90;;
23498;SDS011;11926;48.120;11.562;2023-09-18T06:44:14;10.38;;;3.80;;
23498;SDS011;11926;48.120;11.562;2023-09-18T06:47:02;12.05;;;4.75;;
23498;SDS011;11926;48.120;11.562;2023-09-18T06:49:50;8.63;;;3.97;;
23498;SDS011;11926;48.120;11.562;2023-09-18T06:52:38;8.25;;;3.70;;
23498;SDS011;11926;48.120;11.562;2023-09-18T06:55:26;6.93;;;3.58;;
23498;SDS011;11926;48.120;11.562;2023-09-18T06:58:13;11.90;;;4.00;;
23498;SDS011;11926;48.120;11.562;2023-09-18T07:01:02;11.20;;;4.20;;
23498;SDS011;11926;48.120;11.562;2023-09-18T07:03:52;11.18;;;4.13;;
23498;SDS011;11926;48.120;11.562;2023-09-18T07:06:39;11.73;;;4.32;;
23498;SDS011;11926;48.120;11.562;2023-09-18T07:09:27;8.25;;;3.72;;
23498;SDS011;11926;48.120;11.562;2023-09-18T07:12:14;11.48;;;4.07;;
23498;SDS011;11926;48.120;11.562;2023-09-18T07:15:02;8.68;;;3.90;;
23498;SDS011;11926;48.120;11.562;2023-09-18T07:17:52;11.57;;;3.95;;
23498;SDS011;11926;48.120;11.562;2023-09-18T07:20:40;10.50;;;4.00;;
23498;SDS011;11926;48.120;11.562;2023-09-18T07:23:28;10.32;;;3.13;;
23498;SDS011;11926;48.120;11.562;2023-09-18T07:26:15;10.23;;;3.78;;
23498;SDS011;11926;48.120;11.562;2023-09-18T07:29:02;10.77;;;3.80;;
23498;SDS011;11926;48.120;11.562;2023-09-18T07:31:49;10.80;;;3.90;;
23498;SDS011;11926;48.120;11.562;2023-09-18T07:34:39;9.65;;;3.13;;
23498;SDS011;11926;48.120;11.562;2023-09-18T07:37:25;12.55;;;3.70;;
23498;SDS011;11926;48.120;11.562;2023-09-18T07:40:13;8.48;;;3.30;;
23498;SDS011;11926;48.120;11.562;2023-09-18T07:43:01;8.52;;;3.60;;
23498;SDS011;11926;48.120;11.562;2023-09-18T07:45:49;7.97;;;3.60;;
23498;SDS011;11926;48.120;11.562;2023-09-18T07:48:36;8.50;;;3.92;;
23498;SDS011;11926;48.120;11.562;2023-09-18T07:51:25;8.05;;;3.40;;
23498;SDS011;11926;48.120;11.562;2023-09-18T07:54:14;8.07;;;3.80;;
23498;SDS011;11926;48.120;11.562;2023-09-18T07:57:03;10.02;;;3.80;;
23498;SDS011;11926;48.120;11.562;2023-09-18T07:59:54;8.70;;;3.78;;
23498;SDS011;11926;48.120;11.562;2023-09-18T08:02:42;5.43;;;3.28;;
23498;SDS011;11926;48.120;11.562;2023-09-18T08:05:32;7.05;;;3.42;;
23498;SDS011;11926;48.120;11.562;2023-09-18T08:08:21;8.07;;;3.63;;
23498;SDS011;11926;48.120;11.562;2023-09-18T08:11:09;6.68;;;3.42;;
23498;SDS011;11926;48.120;11.562;2023-09-18T08:13:57;5.25;;;3.50;;
23498;SDS011;11926;48.120;11.562;2023-09-18T08:16:44;5.43;;;3.28;;
23498;SDS011;11926;48.120;11.562;2023-09-18T08:19:31;9.23;;;3.58;;
23498;SDS011;11926;48.120;11.562;2023-09-18T08:22:20;7.25;;;3.20;;
23498;SDS011;11926;48.120;11.562;2023-09-18T08:25:10;7.95;;;3.40;;
23498;SDS011;11926;48.120;11.562;2023-09-18T08:27:59;5.68;;;3.60;;
23498;SDS011;11926;48.120;11.562;2023-09-18T08:30:47;8.90;;;3.63;;
23498;SDS011;11926;48.120;11.562;2023-09-18T08:33:34;6.93;;;3.53;;
23498;SDS011;11926;48.120;11.562;2023-09-18T08:36:22;5.68;;;3.35;;
23498;SDS011;11926;48.120;11.562;2023-09-18T08:39:09;8.98;;;3.70;;
23498;SDS011;11926;48.120;11.562;2023-09-18T08:41:59;6.53;;;4.03;;
23498;SDS011;11926;48.120;11.562;2023-09-18T08:44:51;5.38;;;3.75;;
23498;SDS011;11926;48.120;11.562;2023-09-18T08:47:40;7.30;;;3.95;;
23498;SDS011;11926;48.120;11.562;2023-09-18T08:50:28;5.60;;;3.10;;
23498;SDS011;11926;48.120;11.562;2023-09-18T08:53:16;9.55;;;3.63;;
23498;SDS011;11926;48.120;11.562;2023-09-18T08:56:04;6.88;;;3.65;;
23498;SDS011;11926;48.120;11.562;2023-09-18T08:58:54;5.85;;;2.75;;
23498;SDS011;11926;48.120;11.562;2023-09-18T09:01:42;6.20;;;3.25;;
23498;SDS011;11926;48.120;11.562;2023-09-18T09:04:29;7.40;;;3.42;;
23498;SDS011;11926;48.120;11.562;2023-09-18T09:07:16;6.68;;;2.97;;
23498;SDS011;11926;48.120;11.562;2023-09-18T09:10:04;9.23;;;3.92;;
23498;SDS011;11926;48.120;11.562;2023-09-18T09:12:53;11.88;;;3.58;;
23498;SDS011;11926;48.120;11.562;2023-09-18T09:15:47;8.02;;;3.50;;
23498;SDS011;11926;48.120;11.562;2023-09-18T09:18:46;8.80;;;3.50;;
23498;SDS011;11926;48.120;11.562;2023-09-18T09:21:39;9.63;;;3.65;;
23498;SDS011;11926;48.120;11.562;2023-09-18T09:24:35;7.63;;;3.13;;
23498;SDS011;11926;48.120;11.562;2023-09-18T09:27:24;8.18;;;3.50;;
23498;SDS011;11926;48.120;11.562;2023-09-18T09:30:14;9.57;;;3.50;;
23498;SDS011;11926;48.120;11.562;2023-09-18T09:33:09;9.38;;;3.90;;
23498;SDS011;11926;48.120;11.562;2023-09-18T09:35:58;9.67;;;3.60;;
23498;SDS011;11926;48.120;11.562;2023-09-18T09:38:49;9.48;;;3.38;;
23498;SDS011;11926;48.120;11.562;2023-09-18T09:41:45;12.48;;;3.67;;
23498;SDS011;11926;48.120;11.562;2023-09-18T09:44:35;10.90;;;3.47;;
23498;SDS011;11926;48.120;11.562;2023-09-18T09:47:22;10.65;;;3.50;;
23498;SDS011;11926;48.120;11.562;2023-09-18T09:50:12;9.80;;;3.15;;
23498;SDS011;11926;48.120;11.562;2023-09-18T09:53:04;14.13;;;4.10;;
23498;SDS011;11926;48.120;11.562;2023-09-18T09:55:54;9.73;;;3.33;;
23498;SDS011;11926;48.120;11.562;2023-09-18T09:58:41;9.55;;;3.15;;
23498;SDS011;11926;48.120;11.562;2023-09-18T10:01:30;12.27;;;3.63;;
23498;SDS011;11926;48.120;11.562;2023-09-18T10:04:18;13.68;;;3.45;;
23498;SDS011;11926;48.120;11.562;2023-09-18T10:07:08;17.80;;;4.35;;
23498;SDS011;11926;48.120;11.562;2023-09-18T10:09:57;13.20;;;3.97;;
23498;SDS011;11926;48.120;11.562;2023-09-18T10:12:46;12.75;;;3.53;;
23498;SDS011;11926;48.120;11.562;2023-09-18T10:15:35;12.73;;;3.50;;
23498;SDS011;11926;48.120;11.562;2023-09-18T10:18:29;8.65;;;2.75;;
23498;SDS011;11926;48.120;11.562;2023-09-18T10:21:25;9.57;;;3.08;;
23498;SDS011;11926;48.120;11.562;2023-09-18T10:24:20;12.57;;;3.00;;
23498;SDS011;11926;48.120;11.562;2023-09-18T10:27:11;9.32;;;3.20;;
23498;SDS011;11926;48.120;11.562;2023-09-18T10:29:59;22.95;;;3.40;;
23498;SDS011;11926;48.120;11.562;2023-09-18T10:32:51;8.88;;;3.08;;
23498;SDS011;11926;48.120;11.562;2023-09-18T10:35:39;11.45;;;2.90;;
23498;SDS011;11926;48.120;11.562;2023-09-18T10:38:29;10.38;;;2.65;;
23498;SDS011;11926;48.120;11.562;2023-09-18T10:41:19;11.05;;;3.17;;
23498;SDS011;11926;48.120;11.562;2023-09-18T10:44:07;11.75;;;2.38;;
23498;SDS011;11926;48.120;11.562;2023-09-18T10:47:00;13.63;;;2.97;;
23498;SDS011;11926;48.120;11.562;2023-09-18T10:49:51;10.25;;;2.95;;
23498;SDS011;11926;48.120;11.562;2023-09-18T10:52:42;10.15;;;3.10;;
23498;SDS011;11926;48.120;11.562;2023-09-18T10:55:30;12.68;;;3.28;;
23498;SDS011;11926;48.120;11.562;2023-09-18T10:58:24;13.57;;;3.33;;
23498;SDS011;11926;48.120;11.562;2023-09-18T11:01:12;14.85;;;3.88;;
23498;SDS011;11926;48.120;11.562;2023-09-18T11:04:00;10.27;;;3.55;;
23498;SDS011;11926;48.120;11.562;2023-09-18T11:07:01;10.55;;;3.83;;
23498;SDS011;11926;48.120;11.562;2023-09-18T11:09:50;12.60;;;3.65;;
23498;SDS011;11926;48.120;11.562;2023-09-18T11:12:44;13.70;;;4.07;;
23498;SDS011;11926;48.120;11.562;2023-09-18T11:15:33;9.15;;;3.97;;
23498;SDS011;11926;48.120;11.562;2023-09-18T11:18:21;12.00;;;3.63;;
23498;SDS011;11926;48.120;11.562;2023-09-18T11:21:09;17.80;;;3.20;;
23498;SDS011;11926;48.120;11.562;2023-09-18T11:23:58;20.30;;;3.40;;
23498;SDS011;11926;48.120;11.562;2023-09-18T11:26:46;14.75;;;3.08;;
23498;SDS011;11926;48.120;11.562;2023-09-18T11:29:34;12.45;;;3.55;;
23498;SDS011;11926;48.120;11.562;2023-09-18T11:32:38;16.15;;;3.72;;
23498;SDS011;11926;48.120;11.562;2023-09-18T11:35:27;9.40;;;4.13;;
23498;SDS011;11926;48.120;11.562;2023-09-18T11:38:15;14.75;;;3.35;;
23498;SDS011;11926;48.120;11.562;2023-09-18T11:44:33;7.35;;;1.98;;
23498;SDS011;11926;48.120;11.562;2023-09-18T11:47:26;13.27;;;2.40;;
23498;SDS011;11926;48.120;11.562;2023-09-18T11:50:16;131.57;;;8.23;;
23498;SDS011;11926;48.120;11.562;2023-09-18T11:53:07;23.60;;;2.30;;
23498;SDS011;11926;48.120;11.562;2023-09-18T11:55:55;10.48;;;1.92;;
23498;SDS011;11926;48.120;11.562;2023-09-18T11:58:46;11.20;;;1.75;;
23498;SDS011;11926;48.120;11.562;2023-09-18T12:01:34;5.38;;;1.85;;
23498;SDS011;11926;48.120;11.562;2023-09-18T12:04:27;16.08;;;3.55;;
23498;SDS011;11926;48.120;11.562;2023-09-18T12:07:16;8.90;;;1.70;;
23498;SDS011;11926;48.120;11.562;2023-09-18T12:10:05;7.65;;;1.70;;
23498;SDS011;11926;48.120;11.562;2023-09-18T12:12:55;4.38;;;1.50;;
23498;SDS011;11926;48.120;11.562;2023-09-18T12:15:44;5.65;;;1.42;;
23498;SDS011;11926;48.120;11.562;2023-09-18T12:18:32;5.75;;;1.20;;
23498;SDS011;11926;48.120;11.562;2023-09-18T12:21:23;5.32;;;1.50;;
23498;SDS011;11926;48.120;11.562;2023-09-18T12:24:14;4.18;;;1.33;;
23498;SDS011;11926;48.120;11.562;2023-09-18T12:27:02;6.25;;;1.60;;
23498;SDS011;11926;48.120;11.562;2023-09-18T12:29:49;7.35;;;1.75;;
23498;SDS011;11926;48.120;11.562;2023-09-18T12:32:37;4.25;;;1.73;;
23498;SDS011;11926;48.120;11.562;2023-09-18T12:35:25;6.70;;;1.52;;
23498;SDS011;11926;48.120;11.562;2023-09-18T12:38:16;6.43;;;1.50;;
23498;SDS011;11926;48.120;11.562;2023-09-18T12:41:06;5.10;;;1.40;;
23498;SDS011;11926;48.120;11.562;2023-09-18T12:43:54;3.92;;;1.50;;
23498;SDS011;11926;48.120;11.562;2023-09-18T12:46:41;5.85;;;1.67;;
23498;SDS011;11926;48.120;11.562;2023-09-18T12:49:29;5.97;;;1.33;;
23498;SDS011;11926;48.120;11.562;2023-09-18T12:52:21;6.35;;;1.10;;
23498;SDS011;11926;48.120;11.562;2023-09-18T12:55:19;6.53;;;1.20;;
23498;SDS011;11926;48.120;11.562;2023-09-18T12:58:13;8.57;;;1.52;;
23498;SDS011;11926;48.120;11.562;2023-09-18T13:01:04;5.20;;;1.30;;
23498;SDS011;11926;48.120;11.562;2023-09-18T13:03:55;4.30;;;1.17;;
23498;SDS011;11926;48.120;11.562;2023-09-18T13:06:46;2.97;;;1.08;;
23498;SDS011;11926;48.120;11.562;2023-09-18T13:09:33;2.65;;;0.90;;
23498;SDS011;11926;48.120;11.562;2023-09-18T13:12:22;8.88;;;1.50;;
23498;SDS011;11926;48.120;11.562;2023-09-18T13:15:11;4.20;;;1.40;;
23498;SDS011;11926;48.120;11.562;2023-09-18T13:18:08;8.57;;;1.30;;
23498;SDS011;11926;48.120;11.562;2023-09-18T13:20:57;4.82;;;1.30;;
23498;SDS011;11926;48.120;11.562;2023-09-18T13:23:44;5.55;;;1.30;;
23498;SDS011;11926;48.120;11.562;2023-09-18T13:26:31;9.27;;;1.70;;
23498;SDS011;11926;48.120;11.562;2023-09-18T13:29:19;5.22;;;1.30;;
23498;SDS011;11926;48.120;11.562;2023-09-18T13:32:08;8.68;;;1.27;;
23498;SDS011;11926;48.120;11.562;2023-09-18T13:34:56;4.70;;;1.35;;
23498;SDS011;11926;48.120;11.562;2023-09-18T13:37:43;3.78;;;1.73;;
23498;SDS011;11926;48.120;11.562;2023-09-18T13:40:32;4.88;;;1.40;;
23498;SDS011;11926;48.120;11.562;2023-09-18T13:43:20;6.00;;;1.50;;
23498;SDS011;11926;48.120;11.562;2023-09-18T13:46:08;4.57;;;1.30;;
23498;SDS011;11926;48.120;11.562;2023-09-18T13:48:57;3.85;;;0.95;;
23498;SDS011;11926;48.120;11.562;2023-09-18T13:51:44;3.88;;;1.27;;
23498;SDS011;11926;48.120;11.562;2023-09-18T13:54:32;4.68;;;1.30;;
23498;SDS011;11926;48.120;11.562;2023-09-18T13:57:20;4.70;;;1.10;;
23498;SDS011;11926;48.120;11.562;2023-09-18T14:00:08;4.15;;;1.40;;
23498;SDS011;11926;48.120;11.562;2023-09-18T14:02:57;4.10;;;1.45;;
23498;SDS011;11926;48.120;11.562;2023-09-18T14:05:46;4.47;;;1.10;;
23498;SDS011;11926;48.120;11.562;2023-09-18T14:08:34;5.43;;;1.30;;
23498;SDS011;11926;48.120;11.562;2023-09-18T14:11:24;4.95;;;1.20;;
23498;SDS011;11926;48.120;11.562;2023-09-18T14:14:11;4.78;;;1.15;;
23498;SDS011;11926;48.120;11.562;2023-09-18T14:16:59;3.63;;;1.42;;
23498;SDS011;11926;48.120;11.562;2023-09-18T14:19:46;3.50;;;1.27;;
23498;SDS011;11926;48.120;11.562;2023-09-18T14:22:35;2.95;;;1.05;;
23498;SDS011;11926;48.120;11.562;2023-09-18T14:25:22;3.58;;;1.20;;
23498;SDS011;11926;48.120;11.562;2023-09-18T14:28:10;2.75;;;1.10;;
23498;SDS011;11926;48.120;11.562;2023-09-18T14:30:58;2.42;;;1.10;;
23498;SDS011;11926;48.120;11.562;2023-09-18T14:33:46;4.95;;;1.73;;
23498;SDS011;11926;48.120;11.562;2023-09-18T14:36:33;4.15;;;1.55;;
23498;SDS011;11926;48.120;11.562;2023-09-18T14:39:24;3.92;;;1.27;;
23498;SDS011;11926;48.120;11.562;2023-09-18T14:42:12;3.92;;;1.33;;
23498;SDS011;11926;48.120;11.562;2023-09-18T14:44:59;3.28;;;1.30;;
23498;SDS011;11926;48.120;11.562;2023-09-18T14:47:47;3.33;;;1.27;;
23498;SDS011;11926;48.120;11.562;2023-09-18T14:50:35;3.03;;;1.35;;
23498;SDS011;11926;48.120;11.562;2023-09-18T14:53:22;4.13;;;1.20;;
23498;SDS011;11926;48.120;11.562;2023-09-18T14:56:12;2.38;;;0.95;;
23498;SDS011;11926;48.120;11.562;2023-09-18T14:58:59;3.80;;;1.08;;
23498;SDS011;11926;48.120;11.562;2023-09-18T15:01:46;2.92;;;1.10;;
23498;SDS011;11926;48.120;11.562;2023-09-18T15:04:34;3.45;;;1.33;;
23498;SDS011;11926;48.120;11.562;2023-09-18T15:07:22;2.92;;;1.10;;
23498;SDS011;11926;48.120;11.562;2023-09-18T15:10:10;4.40;;;1.20;;
23498;SDS011;11926;48.120;11.562;2023-09-18T15:12:59;4.03;;;1.00;;
23498;SDS011;11926;48.120;11.562;2023-09-18T15:15:47;2.70;;;0.90;;
23498;SDS011;11926;48.120;11.562;2023-09-18T15:18:35;2.72;;;0.95;;
23498;SDS011;11926;48.120;11.562;2023-09-18T15:21:23;3.38;;;1.13;;
23498;SDS011;11926;48.120;11.562;2023-09-18T15:24:10;2.70;;;1.00;;
23498;SDS011;11926;48.120;11.562;2023-09-18T15:26:58;5.45;;;1.15;;
23498;SDS011;11926;48.120;11.562;2023-09-18T15:29:46;6.18;;;1.60;;
23498;SDS011;11926;48.120;11.562;2023-09-18T15:32:45;2.22;;;0.95;;
23498;SDS011;11926;48.120;11.562;2023-09-18T15:35:36;2.78;;;1.10;;
23498;SDS011;11926;48.120;11.562;2023-09-18T15:38:24;4.93;;;1.17;;
23498;SDS011;11926;48.120;11.562;2023-09-18T15:41:12;3.33;;;1.08;;
23498;SDS011;11926;48.120;11.562;2023-09-18T15:44:00;2.88;;;1.20;;
23498;SDS011;11926;48.120;11.562;2023-09-18T15:46:49;3.53;;;0.93;;
23498;SDS011;11926;48.120;11.562;2023-09-18T15:49:37;2.80;;;0.85;;
23498;SDS011;11926;48.120;11.562;2023-09-18T15:52:24;2.88;;;0.85;;
23498;SDS011;11926;48.120;11.562;2023-09-18T15:55:12;2.47;;;1.00;;
23498;SDS011;11926;48.120;11.562;2023-09-18T15:58:00;3.25;;;0.90;;
23498;SDS011;11926;48.120;11.562;2023-09-18T16:00:47;2.67;;;0.90;;
23498;SDS011;11926;48.120;11.562;2023-09-18T16:03:36;2.70;;;0.98;;
23498;SDS011;11926;48.120;11.562;2023-09-18T16:06:26;3.50;;;1.30;;
23498;SDS011;11926;48.120;11.562;2023-09-18T16:09:14;2.35;;;0.90;;
23498;SDS011;11926;48.120;11.562;2023-09-18T16:12:02;5.57;;;1.20;;
23498;SDS011;11926;48.120;11.562;2023-09-18T16:14:49;3.47;;;1.23;;
23498;SDS011;11926;48.120;11.562;2023-09-18T16:17:37;11.40;;;1.25;;
23498;SDS011;11926;48.120;11.562;2023-09-18T16:20:26;2.70;;;1.10;;
23498;SDS011;11926;48.120;11.562;2023-09-18T16:23:13;4.80;;;1.45;;
23498;SDS011;11926;48.120;11.562;2023-09-18T16:26:01;4.15;;;1.20;;
23498;SDS011;11926;48.120;11.562;2023-09-18T16:28:49;2.83;;;1.00;;
23498;SDS011;11926;48.120;11.562;2023-09-18T16:31:36;2.38;;;0.77;;
23498;SDS011;11926;48.120;11.562;2023-09-18T16:34:23;4.10;;;0.85;;
23498;SDS011;11926;48.120;11.562;2023-09-18T16:37:12;4.25;;;1.00;;
23498;SDS011;11926;48.120;11.562;2023-09-18T16:40:00;4.82;;;1.13;;
23498;SDS011;11926;48.120;11.562;2023-09-18T16:42:48;4.72;;;1.15;;